Time;durP1;ratioP1;P1;durP2;ratioP2;P2;SDS_P1;SDS_P2;PMS_P1;PMS_P2;Temp;Humidity;BMP_temperature;BMP_pressure;BME280_temperature;BME280_humidity;BME280_pressure;Samples;Min_cycle;Max_cycle;Signal;HPM_P1;HPM_P2
2022/12/28 00:02:23;;;;;;;3.80;2.83;;;6.60;99.90;;;;;;5084819;28;20020;-41
2022/12/28 00:04:49;;;;;;;9.93;3.10;;;6.60;99.90;;;;;;5080976;28;20487;-72
2022/12/28 00:07:14;;;;;;;5.65;2.30;;;6.70;99.90;;;;;;5080208;28;20025;-42
2022/12/28 00:09:40;;;;;;;8.38;2.97;;;6.70;99.90;;;;;;5084235;28;20047;-40
2022/12/28 00:18:37;;;;;;;9.15;2.80;;;6.70;99.90;;;;;;5013538;28;20052;-38
2022/12/28 00:21:04;;;;;;;3.95;2.40;;;6.70;99.90;;;;;;5013600;28;20026;-37
2022/12/28 00:23:31;;;;;;;9.40;2.60;;;6.80;99.90;;;;;;5012351;28;20018;-38
2022/12/28 00:26:08;;;;;;;8.48;2.97;;;6.80;99.90;;;;;;5013542;28;20120;-35
2022/12/28 00:28:33;;;;;;;14.27;3.38;;;6.80;99.90;;;;;;5013429;28;20044;-35
2022/12/28 00:30:59;;;;;;;8.82;2.72;;;6.80;99.90;;;;;;5013729;28;20026;-36
2022/12/28 00:33:25;;;;;;;8.20;3.17;;;6.80;99.90;;;;;;5013506;28;20057;-42
2022/12/28 00:35:55;;;;;;;10.27;3.05;;;6.90;99.90;;;;;;5009298;28;20062;-37
2022/12/28 00:38:20;;;;;;;5.88;3.17;;;6.80;99.90;;;;;;5006986;28;20478;-38
2022/12/28 00:40:46;;;;;;;7.88;2.85;;;6.80;99.90;;;;;;5011961;28;20052;-37
2022/12/28 00:43:12;;;;;;;8.15;3.20;;;6.90;99.90;;;;;;5012296;28;20018;-38
2022/12/28 00:45:37;;;;;;;3.95;2.78;;;6.90;99.90;;;;;;5011070;28;20069;-39
2022/12/28 00:48:03;;;;;;;5.60;2.83;;;6.90;99.90;;;;;;5010482;28;20030;-38
2022/12/28 00:50:29;;;;;;;9.35;2.78;;;6.90;99.90;;;;;;5012505;28;20102;-35
2022/12/28 00:52:55;;;;;;;8.20;3.08;;;6.90;99.90;;;;;;5013244;28;20104;-39
2022/12/28 00:55:21;;;;;;;3.35;2.92;;;7.00;99.90;;;;;;5013111;28;20030;-37
2022/12/28 00:57:46;;;;;;;6.10;2.83;;;7.00;99.90;;;;;;5008891;28;20459;-42
2022/12/28 01:00:13;;;;;;;3.20;2.70;;;7.10;99.90;;;;;;5008040;28;20026;-47
2022/12/28 01:02:38;;;;;;;8.27;3.22;;;7.10;99.90;;;;;;5013071;28;20521;-37
2022/12/28 01:05:05;;;;;;;5.25;3.65;;;7.10;99.90;;;;;;5013703;28;20157;-34
2022/12/28 01:07:30;;;;;;;5.25;2.90;;;7.10;99.90;;;;;;5016536;28;20108;-40
2022/12/28 01:09:56;;;;;;;5.93;3.20;;;7.20;99.90;;;;;;5017284;28;20900;-39
2022/12/28 01:12:21;;;;;;;4.85;3.35;;;7.20;99.90;;;;;;5014905;28;20026;-37
2022/12/28 01:14:47;;;;;;;11.88;3.13;;;7.30;99.90;;;;;;5016629;28;20093;-37
2022/12/28 01:17:13;;;;;;;7.60;3.55;;;7.30;99.90;;;;;;5016973;28;20462;-39
2022/12/28 01:19:38;;;;;;;10.13;3.10;;;7.30;99.90;;;;;;5016557;28;20366;-38
2022/12/28 01:22:04;;;;;;;9.18;3.42;;;7.30;99.90;;;;;;5010027;28;20521;-38
2022/12/28 01:24:30;;;;;;;6.65;3.05;;;7.30;99.90;;;;;;5015612;28;20033;-38
2022/12/28 01:26:55;;;;;;;8.82;3.60;;;7.40;99.90;;;;;;5015784;28;20493;-37
2022/12/28 01:29:21;;;;;;;10.75;3.78;;;7.30;99.90;;;;;;5016736;28;20469;-41
2022/12/28 01:31:46;;;;;;;5.75;3.70;;;7.40;99.90;;;;;;5015909;28;20030;-37
2022/12/28 01:34:12;;;;;;;4.32;3.28;;;7.40;99.90;;;;;;5016652;28;20053;-38
2022/12/28 01:36:38;;;;;;;3.28;2.80;;;7.50;99.90;;;;;;5016474;28;20049;-34
2022/12/28 01:39:05;;;;;;;10.98;3.95;;;7.50;99.90;;;;;;5015497;28;20022;-38
2022/12/28 01:41:35;;;;;;;7.10;3.38;;;7.60;99.90;;;;;;5008820;28;20026;-38
2022/12/28 01:44:01;;;;;;;8.52;3.60;;;7.60;99.90;;;;;;5009167;28;20026;-39
2022/12/28 01:46:54;;;;;;;3.60;3.05;;;7.70;99.90;;;;;;5010460;28;20030;-34
2022/12/28 01:49:25;;;;;;;13.50;3.85;;;7.70;99.90;;;;;;5002774;28;20604;-36
2022/12/28 01:52:15;;;;;;;7.72;3.63;;;7.80;99.90;;;;;;5016423;28;20030;-36
2022/12/28 01:54:47;;;;;;;5.07;3.10;;;7.80;99.90;;;;;;5015349;28;20040;-38
2022/12/28 01:57:14;;;;;;;5.00;3.58;;;7.80;99.90;;;;;;5015678;28;20041;-41
2022/12/28 01:59:44;;;;;;;8.23;3.20;;;7.80;99.90;;;;;;5015362;28;20034;-41
2022/12/28 02:02:11;;;;;;;12.75;3.72;;;7.80;99.90;;;;;;5015428;28;20033;-42
2022/12/28 02:04:36;;;;;;;9.30;3.25;;;7.80;99.90;;;;;;5015404;28;20022;-41
2022/12/28 02:07:02;;;;;;;6.95;3.30;;;7.80;99.90;;;;;;5015526;28;20041;-41
2022/12/28 02:09:37;;;;;;;4.38;2.83;;;7.80;99.90;;;;;;5007379;28;20389;-43
2022/12/28 02:12:04;;;;;;;12.68;4.20;;;7.80;99.90;;;;;;5015307;28;20113;-42
2022/12/28 02:14:31;;;;;;;5.57;3.28;;;7.80;99.90;;;;;;5015569;28;20425;-44
2022/12/28 02:16:57;;;;;;;6.50;3.42;;;7.80;99.90;;;;;;5012642;28;20069;-42
2022/12/28 02:19:40;;;;;;;2.97;2.75;;;7.80;99.90;;;;;;5015857;28;20559;-40
2022/12/28 02:22:43;;;;;;;4.82;3.17;;;7.80;99.90;;;;;;5014770;28;20112;-40
2022/12/28 02:25:51;;;;;;;12.73;4.43;;;7.80;99.90;;;;;;5013986;28;20411;-42
2022/12/28 02:28:41;;;;;;;7.47;3.60;;;7.80;99.90;;;;;;5015769;28;20034;-38
2022/12/28 02:31:42;;;;;;;6.50;3.63;;;7.70;99.90;;;;;;5014610;28;20440;-39
2022/12/28 02:34:17;;;;;;;8.38;3.88;;;7.80;99.90;;;;;;4997693;28;20509;-37
2022/12/28 02:36:51;;;;;;;6.13;3.20;;;7.80;99.90;;;;;;5010988;28;20104;-39
2022/12/28 02:39:27;;;;;;;7.70;3.60;;;7.80;99.90;;;;;;5012193;28;20033;-37
2022/12/28 02:41:54;;;;;;;6.47;3.92;;;7.90;99.90;;;;;;5012311;28;20504;-37
2022/12/28 02:50:13;;;;;;;5.88;3.78;;;7.80;99.90;;;;;;4992867;28;20105;-37
2022/12/28 02:53:05;;;;;;;10.43;4.53;;;7.80;99.90;;;;;;5005262;28;20485;-38
2022/12/28 02:56:16;;;;;;;5.15;3.63;;;7.80;99.90;;;;;;5011798;28;20109;-37
2022/12/28 02:59:04;;;;;;;10.00;4.00;;;7.80;99.90;;;;;;5006235;28;20022;-37
2022/12/28 03:01:53;;;;;;;5.43;4.07;;;7.90;99.90;;;;;;5013652;28;20036;-34
2022/12/28 03:04:46;;;;;;;4.97;4.13;;;7.90;99.90;;;;;;5011631;28;20076;-36
2022/12/28 03:10:24;;;;;;;7.03;4.22;;;7.90;99.90;;;;;;5008943;28;20469;-36
2022/12/28 03:13:02;;;;;;;7.55;4.10;;;7.90;99.90;;;;;;5012004;28;20434;-36
2022/12/28 03:15:33;;;;;;;8.45;4.93;;;7.90;99.90;;;;;;5014264;28;20100;-34
2022/12/28 03:32:25;;;;;;;6.70;3.67;;;8.00;99.90;;;;;;5011862;28;20385;-38
2022/12/28 03:34:51;;;;;;;6.05;4.75;;;8.00;99.90;;;;;;5011905;28;20038;-35
2022/12/28 03:37:24;;;;;;;12.60;5.45;;;8.00;99.90;;;;;;5012352;28;20381;-43
2022/12/28 03:39:56;;;;;;;6.55;4.20;;;8.10;99.90;;;;;;5011486;28;20402;-40
2022/12/28 03:45:28;;;;;;;7.70;4.43;;;8.20;99.90;;;;;;5013725;28;20073;-40
2022/12/28 03:47:55;;;;;;;8.60;4.47;;;8.20;99.90;;;;;;5011556;28;20482;-36
2022/12/28 03:50:21;;;;;;;4.00;3.60;;;8.20;99.90;;;;;;5012682;28;20469;-37
2022/12/28 03:52:47;;;;;;;6.25;4.20;;;8.30;99.90;;;;;;5013509;28;20386;-34
2022/12/28 03:55:14;;;;;;;5.68;4.35;;;8.30;99.90;;;;;;5011603;28;20033;-39
2022/12/28 03:57:40;;;;;;;5.70;3.85;;;8.40;99.90;;;;;;5011081;28;20116;-36
2022/12/28 04:00:08;;;;;;;7.50;4.18;;;8.40;99.90;;;;;;5011692;28;20176;-42
2022/12/28 04:02:34;;;;;;;13.40;4.28;;;8.40;99.90;;;;;;5013519;28;20490;-43
2022/12/28 04:04:59;;;;;;;7.20;4.47;;;8.50;99.90;;;;;;5010778;28;20033;-43
2022/12/28 04:07:25;;;;;;;7.50;4.13;;;8.60;99.90;;;;;;5011674;28;20050;-39
2022/12/28 04:09:51;;;;;;;4.22;3.53;;;8.60;99.90;;;;;;5012337;28;20033;-41
2022/12/28 04:12:16;;;;;;;7.25;3.72;;;8.60;99.90;;;;;;5010901;28;20477;-36
2022/12/28 04:14:42;;;;;;;9.07;4.20;;;8.70;99.90;;;;;;5011955;28;20027;-38
2022/12/28 04:17:09;;;;;;;13.90;4.72;;;8.70;99.90;;;;;;5012069;28;20102;-41
2022/12/28 04:19:34;;;;;;;9.63;4.00;;;8.80;99.90;;;;;;5011698;28;20034;-42
2022/12/28 04:22:00;;;;;;;12.43;3.92;;;8.80;99.90;;;;;;5012667;28;20049;-47
2022/12/28 04:24:25;;;;;;;6.75;3.92;;;8.80;99.90;;;;;;5011893;28;20084;-42
2022/12/28 04:26:51;;;;;;;4.40;3.97;;;8.90;99.90;;;;;;5011036;28;20108;-36
2022/12/28 04:29:17;;;;;;;4.85;3.60;;;8.80;99.90;;;;;;5012181;28;20030;-37
2022/12/28 04:31:42;;;;;;;5.03;3.22;;;8.80;99.90;;;;;;5011587;28;20488;-38
2022/12/28 04:34:11;;;;;;;4.93;3.30;;;8.80;99.90;;;;;;5013040;28;20026;-37
2022/12/28 04:36:38;;;;;;;8.43;4.03;;;8.80;99.90;;;;;;5011900;28;20383;-40
2022/12/28 04:39:05;;;;;;;4.97;3.93;;;8.80;99.90;;;;;;5012676;28;20079;-39
2022/12/28 04:41:30;;;;;;;8.52;4.40;;;8.80;99.90;;;;;;5007412;28;20026;-40
2022/12/28 04:43:56;;;;;;;10.93;3.83;;;8.80;99.90;;;;;;5013333;28;20445;-38
2022/12/28 04:46:23;;;;;;;7.55;3.97;;;8.80;99.90;;;;;;5011929;28;20088;-38
2022/12/28 04:48:50;;;;;;;6.20;3.70;;;8.90;99.90;;;;;;5011838;28;20557;-39
2022/12/28 04:51:15;;;;;;;5.70;3.80;;;8.90;99.90;;;;;;5011376;28;20489;-36
2022/12/28 04:53:41;;;;;;;6.43;3.80;;;8.90;99.90;;;;;;5009906;28;20030;-43
2022/12/28 04:56:08;;;;;;;7.28;3.17;;;8.90;99.90;;;;;;5012247;28;20577;-41
2022/12/28 04:58:35;;;;;;;3.85;3.00;;;8.80;99.90;;;;;;5012533;28;20156;-34
2022/12/28 05:01:02;;;;;;;3.40;2.80;;;8.80;99.90;;;;;;5012536;28;20030;-37
2022/12/28 05:03:28;;;;;;;4.30;3.60;;;8.90;99.90;;;;;;5011232;28;20033;-43
2022/12/28 05:05:53;;;;;;;5.95;2.53;;;8.90;99.90;;;;;;5011196;28;20034;-42
2022/12/28 05:08:19;;;;;;;5.07;3.10;;;8.90;99.90;;;;;;5013219;28;20026;-44
2022/12/28 05:10:45;;;;;;;4.53;3.17;;;9.00;99.90;;;;;;5011802;28;20033;-47
2022/12/28 05:13:10;;;;;;;5.45;3.17;;;9.00;99.90;;;;;;5010737;28;20034;-45
2022/12/28 05:15:37;;;;;;;4.35;2.92;;;9.00;99.90;;;;;;5010825;28;20539;-36
2022/12/28 05:18:02;;;;;;;3.78;2.92;;;9.10;99.90;;;;;;5011720;28;20061;-38
2022/12/28 05:20:28;;;;;;;6.32;2.78;;;9.10;99.90;;;;;;5012362;28;20486;-33
2022/12/28 05:22:54;;;;;;;6.10;2.50;;;9.20;99.90;;;;;;5011580;28;20058;-39
2022/12/28 05:25:19;;;;;;;4.63;2.22;;;9.20;99.90;;;;;;5009659;28;20056;-37
2022/12/28 05:27:45;;;;;;;4.47;2.38;;;9.20;99.90;;;;;;5008754;28;20211;-35
2022/12/28 05:30:10;;;;;;;9.40;2.45;;;9.20;99.90;;;;;;5008423;28;20496;-39
2022/12/28 05:32:36;;;;;;;2.00;1.90;;;9.20;99.90;;;;;;5009936;28;20049;-43
2022/12/28 05:35:02;;;;;;;3.35;2.08;;;9.30;99.90;;;;;;5010968;28;20030;-44
2022/12/28 05:37:27;;;;;;;5.28;2.35;;;9.30;99.90;;;;;;5012343;28;20398;-61
2022/12/28 05:39:53;;;;;;;4.28;2.35;;;9.30;99.90;;;;;;5010680;28;20470;-43
2022/12/28 05:42:18;;;;;;;2.38;2.08;;;9.30;99.90;;;;;;5009715;28;20101;-34
2022/12/28 05:44:44;;;;;;;2.75;1.90;;;9.30;99.90;;;;;;5011167;28;20104;-44
2022/12/28 05:47:10;;;;;;;5.35;1.95;;;9.30;99.90;;;;;;5010619;28;20160;-42
2022/12/28 05:49:35;;;;;;;2.70;2.03;;;9.30;99.90;;;;;;5013016;28;20069;-47
2022/12/28 05:52:01;;;;;;;3.38;2.33;;;9.30;99.90;;;;;;5008773;28;20022;-41
2022/12/28 05:54:26;;;;;;;5.28;2.28;;;9.30;99.90;;;;;;5015767;28;20032;-42
2022/12/28 05:56:52;;;;;;;4.00;1.73;;;9.20;99.90;;;;;;5015053;28;20504;-44
2022/12/28 05:59:18;;;;;;;6.88;3.30;;;9.30;99.90;;;;;;5015009;28;20021;-41
2022/12/28 06:01:44;;;;;;;3.60;2.13;;;9.30;99.90;;;;;;5014475;28;20029;-47
2022/12/28 06:04:17;;;;;;;3.88;2.00;;;9.30;99.90;;;;;;5015411;28;20543;-45
2022/12/28 06:06:44;;;;;;;2.28;2.08;;;9.30;99.90;;;;;;5015587;28;20379;-35
2022/12/28 06:09:10;;;;;;;7.50;2.35;;;9.40;99.90;;;;;;5014612;28;20029;-37
2022/12/28 06:11:35;;;;;;;2.33;1.92;;;9.40;99.90;;;;;;5016102;28;20041;-39
2022/12/28 06:14:02;;;;;;;3.17;1.98;;;9.40;99.90;;;;;;5014005;28;20022;-38
2022/12/28 06:16:30;;;;;;;3.05;2.15;;;9.40;99.90;;;;;;5014372;28;20112;-36
2022/12/28 06:18:56;;;;;;;;;;;9.50;99.90;;;;;;5014550;28;20026;-36
2022/12/28 06:21:30;;;;;;;6.00;1.92;;;9.50;99.90;;;;;;5014505;28;19916;-41
2022/12/28 06:23:58;;;;;;;4.20;1.60;;;9.50;99.90;;;;;;5014103;28;20452;-40
2022/12/28 06:26:25;;;;;;;4.90;2.30;;;9.50;99.90;;;;;;5013366;28;20086;-39
2022/12/28 06:28:51;;;;;;;8.40;2.33;;;9.60;99.90;;;;;;5013583;28;20030;-36
2022/12/28 06:31:22;;;;;;;2.85;1.88;;;9.60;99.90;;;;;;5014671;28;20079;-38
2022/12/28 06:33:49;;;;;;;6.47;2.65;;;9.60;99.90;;;;;;5013551;28;20022;-42
2022/12/28 06:36:17;;;;;;;3.47;2.10;;;9.70;99.90;;;;;;5013199;28;20033;-35
2022/12/28 06:38:44;;;;;;;4.72;1.73;;;9.60;99.90;;;;;;5012334;28;20508;-39
2022/12/28 06:41:12;;;;;;;2.47;1.85;;;9.70;99.90;;;;;;5013524;28;20478;-40
2022/12/28 06:43:39;;;;;;;8.43;1.85;;;9.60;99.90;;;;;;5013185;28;20130;-34
2022/12/28 06:46:06;;;;;;;2.15;1.40;;;9.70;99.90;;;;;;5009682;28;20037;-39
2022/12/28 06:48:33;;;;;;;2.55;1.70;;;9.70;99.90;;;;;;5010115;28;20485;-39
2022/12/28 06:51:08;;;;;;;1.75;1.35;;;9.70;99.90;;;;;;5012721;28;20771;-47
2022/12/28 06:53:36;;;;;;;2.83;1.50;;;9.70;99.90;;;;;;5013222;28;20482;-38
2022/12/28 06:56:07;;;;;;;6.80;1.60;;;9.70;99.90;;;;;;5014493;28;20389;-47
2022/12/28 06:58:33;;;;;;;1.77;1.67;;;9.70;99.90;;;;;;5013531;28;20359;-35
2022/12/28 07:01:06;;;;;;;2.53;1.90;;;9.70;99.90;;;;;;5012596;28;20089;-41
2022/12/28 07:03:32;;;;;;;2.28;1.52;;;9.70;99.90;;;;;;5012309;28;20029;-37
2022/12/28 07:06:03;;;;;;;1.90;1.80;;;9.60;99.90;;;;;;5012007;28;20030;-40
2022/12/28 07:08:29;;;;;;;7.65;1.40;;;9.60;99.90;;;;;;5013246;28;20417;-48
2022/12/28 07:10:54;;;;;;;2.15;1.50;;;9.70;99.90;;;;;;5011659;28;20049;-45
2022/12/28 07:13:20;;;;;;;3.22;1.60;;;9.70;99.90;;;;;;4997811;28;20022;-49
2022/12/28 07:15:46;;;;;;;1.35;1.25;;;9.70;99.90;;;;;;5012053;28;20448;-43
2022/12/28 07:18:11;;;;;;;5.25;2.03;;;9.70;99.90;;;;;;5013807;28;20509;-44
2022/12/28 07:20:37;;;;;;;1.40;1.30;;;9.70;99.90;;;;;;5012967;28;20485;-46
2022/12/28 07:23:02;;;;;;;4.60;1.27;;;9.70;99.90;;;;;;5012508;28;20034;-40
2022/12/28 07:25:28;;;;;;;4.47;1.45;;;9.70;99.90;;;;;;5011447;28;20437;-36
2022/12/28 07:27:54;;;;;;;3.15;1.88;;;9.70;99.90;;;;;;5014685;28;20036;-37
2022/12/28 07:30:19;;;;;;;1.60;1.50;;;9.80;99.90;;;;;;5012195;28;20026;-41
2022/12/28 07:32:45;;;;;;;2.35;1.58;;;9.80;99.90;;;;;;5011187;28;20497;-38
2022/12/28 07:35:11;;;;;;;3.35;1.58;;;9.80;99.90;;;;;;5013506;28;20474;-38
2022/12/28 07:37:36;;;;;;;1.60;1.33;;;9.90;99.90;;;;;;5012009;28;20528;-37
2022/12/28 07:40:02;;;;;;;1.60;1.38;;;9.90;99.90;;;;;;5011962;28;20028;-40
2022/12/28 07:42:29;;;;;;;3.03;1.60;;;9.90;99.90;;;;;;5013323;28;20030;-36
2022/12/28 07:44:55;;;;;;;1.50;1.38;;;9.90;99.90;;;;;;5013862;28;20022;-38
2022/12/28 07:47:20;;;;;;;2.17;1.40;;;9.90;99.90;;;;;;5012348;28;20512;-41
2022/12/28 07:49:46;;;;;;;3.22;1.67;;;9.90;99.90;;;;;;5013499;28;20025;-40
2022/12/28 07:52:11;;;;;;;3.05;1.63;;;10.00;99.90;;;;;;5012803;28;20156;-40
2022/12/28 07:54:37;;;;;;;4.75;1.48;;;10.00;99.90;;;;;;5012772;28;20026;-39
2022/12/28 07:57:03;;;;;;;3.47;1.67;;;10.00;99.90;;;;;;5012512;28;20097;-37
2022/12/28 07:59:29;;;;;;;2.75;2.10;;;10.00;99.90;;;;;;5012946;28;20489;-38
2022/12/28 08:01:54;;;;;;;2.40;1.60;;;10.00;99.90;;;;;;5013382;28;20022;-53
2022/12/28 08:04:20;;;;;;;3.38;1.50;;;10.00;99.90;;;;;;4994915;28;20018;-41
2022/12/28 08:06:46;;;;;;;9.23;2.65;;;10.00;99.90;;;;;;5010656;28;20038;-39
2022/12/28 08:09:13;;;;;;;4.13;1.60;;;10.00;99.90;;;;;;5010006;28;20116;-37
2022/12/28 08:11:41;;;;;;;2.33;1.48;;;10.00;99.90;;;;;;5011420;28;20026;-36
2022/12/28 08:14:07;;;;;;;3.67;1.65;;;10.00;99.90;;;;;;5008574;28;20025;-40
2022/12/28 08:16:36;;;;;;;3.70;1.30;;;10.00;99.90;;;;;;5007592;28;20046;-40
2022/12/28 08:19:02;;;;;;;4.22;1.50;;;10.00;99.90;;;;;;5001726;28;20040;-37
2022/12/28 08:21:34;;;;;;;3.25;1.33;;;10.00;99.90;;;;;;5012356;28;20056;-40
2022/12/28 08:24:00;;;;;;;1.65;1.20;;;10.10;99.90;;;;;;5010839;28;20088;-41
2022/12/28 08:26:28;;;;;;;2.40;1.88;;;10.10;99.90;;;;;;5012100;28;20481;-39
2022/12/28 08:28:56;;;;;;;3.85;1.60;;;10.10;99.90;;;;;;5011724;28;20482;-41
2022/12/28 08:31:23;;;;;;;;;;;10.10;99.90;;;;;;5012897;28;20037;-38
2022/12/28 08:33:49;;;;;;;2.23;1.60;;;10.20;99.90;;;;;;5011459;28;19910;-38
2022/12/28 08:36:15;;;;;;;2.85;1.80;;;10.20;99.90;;;;;;5012189;28;20527;-44
2022/12/28 08:38:43;;;;;;;3.13;1.85;;;10.20;99.90;;;;;;5010364;28;20026;-43
2022/12/28 08:41:12;;;;;;;3.75;2.15;;;10.20;99.90;;;;;;5010722;28;20018;-41
2022/12/28 08:43:38;;;;;;;4.85;1.83;;;10.20;99.90;;;;;;5012441;28;20100;-44
2022/12/28 08:46:17;;;;;;;2.63;2.40;;;10.20;99.90;;;;;;5011485;28;20045;-44
2022/12/28 08:48:44;;;;;;;6.47;2.30;;;10.20;99.90;;;;;;5010491;28;20507;-45
2022/12/28 08:51:20;;;;;;;3.83;2.55;;;10.20;99.90;;;;;;5009868;28;20502;-44
2022/12/28 08:53:46;;;;;;;4.95;2.90;;;10.20;99.90;;;;;;4995133;28;20042;-45
2022/12/28 08:56:21;;;;;;;3.25;2.65;;;10.20;99.90;;;;;;5010659;28;20026;-47
2022/12/28 08:58:48;;;;;;;5.60;3.30;;;10.30;99.90;;;;;;5011096;28;20022;-44
2022/12/28 09:01:16;;;;;;;3.83;2.75;;;10.30;99.90;;;;;;5009747;28;20105;-40
2022/12/28 09:03:44;;;;;;;5.47;3.00;;;10.30;99.90;;;;;;5006818;28;20029;-38
2022/12/28 09:06:16;;;;;;;3.70;2.78;;;10.30;99.90;;;;;;5010279;28;20030;-37
2022/12/28 09:08:42;;;;;;;2.90;2.70;;;10.30;99.90;;;;;;5003406;28;20042;-39
2022/12/28 09:11:12;;;;;;;4.95;2.58;;;10.30;99.90;;;;;;5008523;28;20045;-38
2022/12/28 09:13:37;;;;;;;6.80;3.47;;;10.20;99.90;;;;;;5010942;28;20500;-39
2022/12/28 09:16:11;;;;;;;7.90;2.70;;;10.30;99.90;;;;;;5009189;28;20042;-37
2022/12/28 09:18:38;;;;;;;3.75;2.97;;;10.20;99.90;;;;;;5005661;28;20030;-35
2022/12/28 09:21:10;;;;;;;5.95;3.22;;;10.20;99.90;;;;;;5013018;28;20470;-41
2022/12/28 09:23:36;;;;;;;9.13;4.25;;;10.20;99.90;;;;;;5013104;28;20022;-41
2022/12/28 09:26:10;;;;;;;7.25;3.05;;;10.20;99.90;;;;;;5008186;28;20101;-35
2022/12/28 09:28:36;;;;;;;4.00;3.22;;;10.30;99.90;;;;;;5012348;28;20038;-37
2022/12/28 09:31:06;;;;;;;11.70;3.15;;;10.20;99.90;;;;;;5007791;28;20556;-40
2022/12/28 09:36:18;;;;;;;3.08;2.70;;;10.30;99.90;;;;;;5011295;28;20048;-41
2022/12/28 09:38:45;;;;;;;10.30;3.97;;;10.20;99.90;;;;;;5008140;28;20117;-41
2022/12/28 09:41:40;;;;;;;2.83;2.63;;;10.20;99.90;;;;;;5013409;28;20112;-40
2022/12/28 09:44:06;;;;;;;4.55;3.55;;;10.20;99.90;;;;;;5014066;28;20036;-39
2022/12/28 09:46:35;;;;;;;5.22;3.10;;;10.20;99.90;;;;;;5009661;28;20398;-39
2022/12/28 09:49:05;;;;;;;9.65;2.92;;;10.20;99.90;;;;;;5015134;28;20076;-45
2022/12/28 09:51:36;;;;;;;8.02;2.95;;;10.20;99.90;;;;;;5015019;28;20022;-43
2022/12/28 09:54:04;;;;;;;5.30;3.10;;;10.30;99.90;;;;;;5016345;28;20026;-43
2022/12/28 09:56:35;;;;;;;2.47;2.28;;;10.30;99.90;;;;;;5011307;28;20030;-43
2022/12/28 09:59:04;;;;;;;6.65;2.97;;;10.40;99.90;;;;;;5015260;28;20058;-44
2022/12/28 10:01:31;;;;;;;2.30;2.10;;;10.40;99.90;;;;;;5010515;28;20053;-50
2022/12/28 10:04:00;;;;;;;5.93;2.73;;;10.40;99.90;;;;;;5013044;28;20040;-51
2022/12/28 10:06:28;;;;;;;9.88;2.22;;;10.40;99.90;;;;;;5004657;28;20548;-45
2022/12/28 10:08:56;;;;;;;4.32;2.58;;;10.40;99.90;;;;;;5014816;28;20022;-42
2022/12/28 10:11:25;;;;;;;4.20;2.15;;;10.50;99.90;;;;;;5011697;28;20042;-42
2022/12/28 10:13:57;;;;;;;2.28;2.03;;;10.50;99.90;;;;;;5007680;28;20100;-43
2022/12/28 10:16:26;;;;;;;5.25;2.03;;;10.50;99.90;;;;;;5004557;28;20077;-48
2022/12/28 10:18:53;;;;;;;4.15;1.90;;;10.50;99.90;;;;;;5010767;28;20022;-45
2022/12/28 10:21:22;;;;;;;2.60;2.00;;;10.50;99.90;;;;;;5008950;28;20492;-60
2022/12/28 10:23:51;;;;;;;4.60;1.80;;;10.50;99.90;;;;;;5012006;28;20018;-41
2022/12/28 10:26:19;;;;;;;3.50;1.80;;;10.50;99.90;;;;;;5010090;28;20041;-44
2022/12/28 10:28:52;;;;;;;;;;;10.50;99.90;;;;;;5015097;28;20041;-43
2022/12/28 10:31:35;;;;;;;6.53;2.15;;;10.50;99.90;;;;;;5014245;28;20404;-43
2022/12/28 10:34:01;;;;;;;5.78;2.08;;;10.50;99.90;;;;;;5008489;28;20038;-45
2022/12/28 10:36:33;;;;;;;3.17;1.90;;;10.50;99.90;;;;;;5012187;28;20080;-45
2022/12/28 10:39:00;;;;;;;3.08;1.67;;;10.50;99.90;;;;;;5010662;28;20555;-41
2022/12/28 10:41:36;;;;;;;10.05;2.97;;;10.50;99.90;;;;;;5015873;28;20022;-39
2022/12/28 10:44:18;;;;;;;4.78;2.03;;;10.40;99.90;;;;;;5011797;28;20026;-39
2022/12/28 10:47:05;;;;;;;3.38;3.08;;;10.30;99.90;;;;;;5010117;28;20033;-43
2022/12/28 10:49:34;;;;;;;8.43;3.05;;;10.30;99.90;;;;;;5012526;28;20030;-38
2022/12/28 10:52:01;;;;;;;8.15;2.72;;;10.20;99.90;;;;;;5014807;28;20478;-35
2022/12/28 10:54:30;;;;;;;3.15;2.10;;;10.10;99.90;;;;;;5013835;28;20359;-47
2022/12/28 10:56:55;;;;;;;3.72;2.10;;;10.10;99.90;;;;;;5012357;28;20030;-42
2022/12/28 10:59:27;;;;;;;3.05;2.15;;;10.00;99.90;;;;;;5013987;28;20026;-46
2022/12/28 11:01:55;;;;;;;2.47;2.13;;;10.00;99.90;;;;;;5014033;28;20032;-48
2022/12/28 11:04:25;;;;;;;3.33;2.58;;;10.00;99.90;;;;;;5013999;28;20351;-46
2022/12/28 11:06:55;;;;;;;5.00;2.40;;;9.90;99.90;;;;;;5011798;28;20085;-43
2022/12/28 11:09:34;;;;;;;3.45;2.88;;;9.90;99.90;;;;;;5014077;28;20076;-45
2022/12/28 11:12:17;;;;;;;5.05;2.17;;;9.90;99.90;;;;;;5010755;28;20556;-44
2022/12/28 11:14:42;;;;;;;3.83;2.20;;;9.80;99.90;;;;;;5011746;28;20030;-47
2022/12/28 11:17:17;;;;;;;10.93;2.63;;;9.80;99.90;;;;;;5012788;28;20521;-43
2022/12/28 11:19:43;;;;;;;2.95;2.13;;;9.80;99.90;;;;;;5009658;28;20520;-48
2022/12/28 11:22:14;;;;;;;2.63;2.42;;;9.80;99.90;;;;;;5011907;28;20026;-46
2022/12/28 11:24:39;;;;;;;5.80;2.33;;;9.80;99.90;;;;;;5013286;28;20057;-45
2022/12/28 11:27:11;;;;;;;5.60;2.70;;;9.70;99.90;;;;;;5014498;28;21217;-45
2022/12/28 11:29:41;;;;;;;6.78;2.92;;;9.80;99.90;;;;;;5011656;28;20130;-40
2022/12/28 11:32:22;;;;;;;7.78;2.38;;;9.80;99.90;;;;;;5009604;28;20473;-40
2022/12/28 11:34:48;;;;;;;6.80;1.92;;;9.80;99.90;;;;;;5011659;28;20022;-38
2022/12/28 11:37:15;;;;;;;6.63;2.90;;;9.80;99.90;;;;;;5012146;28;20030;-39
2022/12/28 11:39:45;;;;;;;5.38;2.95;;;9.80;99.90;;;;;;5007072;28;20585;-41
2022/12/28 11:42:31;;;;;;;5.35;2.13;;;9.80;99.90;;;;;;5010432;28;20480;-41
2022/12/28 11:44:58;;;;;;;2.78;2.10;;;9.80;99.90;;;;;;5010800;28;20366;-45
2022/12/28 11:47:31;;;;;;;4.68;2.72;;;9.80;99.90;;;;;;5010000;28;20029;-40
2022/12/28 11:50:38;;;;;;;6.82;2.75;;;9.90;99.90;;;;;;5005625;28;20072;-44
2022/12/28 11:53:20;;;;;;;3.67;1.98;;;9.90;99.90;;;;;;5003077;28;20401;-39
2022/12/28 11:55:58;;;;;;;3.33;1.90;;;9.80;99.90;;;;;;5011081;28;20029;-40
2022/12/28 11:58:30;;;;;;;2.80;1.70;;;9.80;99.90;;;;;;5009817;28;20053;-47
2022/12/28 12:00:58;;;;;;;3.80;1.73;;;9.80;99.90;;;;;;5011409;28;20145;-52
2022/12/28 12:03:58;;;;;;;4.32;2.10;;;9.70;99.90;;;;;;5012060;28;20057;-42
2022/12/28 12:06:46;;;;;;;2.45;1.88;;;9.70;99.90;;;;;;5011959;28;20033;-36
2022/12/28 12:09:24;;;;;;;4.63;1.92;;;9.80;99.90;;;;;;4994248;28;20114;-42
2022/12/28 12:11:52;;;;;;;5.47;2.25;;;9.70;99.90;;;;;;5002209;28;20098;-41
2022/12/28 12:14:44;;;;;;;11.10;2.05;;;9.70;99.90;;;;;;5012183;28;20065;-42
2022/12/28 12:17:25;;;;;;;3.58;1.90;;;9.70;99.90;;;;;;5011792;28;20510;-40
2022/12/28 12:19:58;;;;;;;6.38;1.75;;;9.70;99.90;;;;;;5012063;28;20057;-42
2022/12/28 12:22:28;;;;;;;4.05;1.80;;;9.70;99.90;;;;;;5007951;28;20065;-39
2022/12/28 12:25:01;;;;;;;2.30;1.90;;;9.70;99.90;;;;;;5012621;28;20029;-43
2022/12/28 12:27:35;;;;;;;6.20;1.75;;;9.70;99.90;;;;;;5012224;28;20034;-39
2022/12/28 12:30:12;;;;;;;2.13;1.55;;;9.70;99.90;;;;;;5007872;28;20108;-42
2022/12/28 12:32:42;;;;;;;7.28;1.75;;;9.70;99.90;;;;;;5000790;28;20044;-35
2022/12/28 12:35:14;;;;;;;4.80;1.58;;;9.70;99.90;;;;;;5011214;28;20038;-40
2022/12/28 12:38:02;;;;;;;4.07;1.63;;;9.70;99.90;;;;;;5013591;28;20545;-39
2022/12/28 12:40:52;;;;;;;2.67;1.85;;;9.70;99.90;;;;;;5007015;28;20032;-35
2022/12/28 12:43:36;;;;;;;2.33;1.60;;;9.70;99.90;;;;;;4997796;28;20025;-35
2022/12/28 12:46:30;;;;;;;7.35;2.60;;;9.70;99.90;;;;;;5011964;28;20026;-37
2022/12/28 12:49:18;;;;;;;2.58;1.77;;;9.70;99.90;;;;;;5012931;28;20486;-37
2022/12/28 12:52:24;;;;;;;5.30;1.85;;;9.80;99.90;;;;;;5012351;28;20052;-38
2022/12/28 12:55:26;;;;;;;5.63;2.60;;;9.80;99.90;;;;;;5010832;28;20478;-36
2022/12/28 12:58:22;;;;;;;5.35;2.65;;;9.80;99.90;;;;;;5011269;28;20025;-36
2022/12/28 13:01:12;;;;;;;3.42;2.13;;;9.80;99.90;;;;;;5011209;28;20050;-38
2022/12/28 13:03:48;;;;;;;3.30;2.00;;;9.80;99.90;;;;;;5007047;28;20053;-40
2022/12/28 13:06:18;;;;;;;2.58;2.38;;;9.90;99.90;;;;;;5009200;28;20025;-42
2022/12/28 13:08:59;;;;;;;3.28;2.65;;;9.90;99.90;;;;;;5010376;28;20026;-43
2022/12/28 13:11:25;;;;;;;7.10;2.50;;;9.90;99.90;;;;;;5003677;28;20037;-43
2022/12/28 13:13:53;;;;;;;4.07;2.53;;;9.90;99.90;;;;;;5012016;28;20545;-40
2022/12/28 13:16:24;;;;;;;6.43;3.03;;;9.90;99.90;;;;;;5012279;28;20053;-47
2022/12/28 13:18:52;;;;;;;4.43;2.30;;;9.90;99.90;;;;;;5012696;28;20083;-44
2022/12/28 13:21:20;;;;;;;5.93;2.47;;;9.90;99.90;;;;;;5009201;28;20034;-45
2022/12/28 13:23:47;;;;;;;4.63;2.28;;;10.00;99.90;;;;;;5008869;28;20022;-44
2022/12/28 13:26:14;;;;;;;8.45;2.60;;;10.00;99.90;;;;;;5008867;28;20041;-45
2022/12/28 13:28:58;;;;;;;9.43;2.97;;;10.00;99.90;;;;;;5012113;28;20500;-39
2022/12/28 13:31:36;;;;;;;7.25;2.28;;;10.00;99.90;;;;;;5010440;28;20108;-43
2022/12/28 13:34:03;;;;;;;;;;;10.00;99.90;;;;;;5004557;28;20853;-40
2022/12/28 13:36:29;;;;;;;5.72;2.28;;;10.00;99.90;;;;;;5010975;28;19920;-37
2022/12/28 13:39:25;;;;;;;11.45;2.58;;;10.00;99.90;;;;;;5008252;28;20532;-46
2022/12/28 13:41:52;;;;;;;6.68;2.53;;;10.00;99.90;;;;;;5005940;28;20111;-41
2022/12/28 13:44:44;;;;;;;9.37;1.87;;;10.00;99.90;;;;;;5011345;28;20100;-41
2022/12/28 13:47:13;;;;;;;3.83;2.38;;;10.00;99.90;;;;;;5001772;28;20516;-41
2022/12/28 13:49:53;;;;;;;6.97;2.53;;;10.10;99.90;;;;;;5004488;28;20117;-42